createdAt,value
2019-05-19T00:00:39.271Z,37.60
2019-05-19T00:03:06.116Z,37.61
2019-05-19T00:05:32.961Z,37.63
2019-05-19T00:07:59.818Z,37.68
2019-05-19T00:10:26.648Z,37.71
2019-05-19T00:12:53.488Z,37.75
2019-05-19T00:15:20.334Z,37.68
2019-05-19T00:17:47.132Z,37.68
2019-05-19T00:20:13.909Z,37.81
2019-05-19T00:22:40.756Z,37.86
2019-05-19T00:25:07.707Z,37.88
2019-05-19T00:27:34.452Z,37.88
2019-05-19T00:30:01.249Z,37.88
2019-05-19T00:32:28.131Z,37.95
2019-05-19T00:34:54.970Z,37.96
2019-05-19T00:37:21.819Z,37.91
2019-05-19T00:39:48.772Z,37.89
2019-05-19T00:42:15.612Z,37.88
2019-05-19T00:44:42.375Z,37.91
2019-05-19T00:47:09.109Z,37.95
2019-05-19T00:49:41.323Z,37.94
2019-05-19T00:52:02.885Z,37.91
2019-05-19T00:54:29.735Z,37.88
2019-05-19T00:59:23.304Z,37.92
2019-05-19T01:01:50.148Z,37.85
2019-05-19T01:04:17.084Z,37.77
2019-05-19T01:06:43.875Z,37.80
2019-05-19T01:09:10.721Z,37.83
2019-05-19T01:11:37.363Z,37.77
2019-05-19T01:14:04.259Z,37.79
2019-05-19T01:16:31.095Z,37.75
2019-05-19T01:18:57.935Z,37.77
2019-05-19T01:21:24.779Z,37.78
2019-05-19T01:23:51.625Z,37.85
2019-05-19T01:26:18.571Z,37.85
2019-05-19T01:28:45.411Z,37.87
2019-05-19T01:33:38.984Z,37.84
2019-05-19T01:36:05.836Z,37.83
2019-05-19T01:38:32.615Z,37.87
2019-05-19T01:40:59.515Z,37.92
2019-05-19T01:43:26.365Z,37.86
2019-05-19T01:45:53.321Z,37.82
2019-05-19T01:48:20.090Z,37.83
2019-05-19T01:50:47.000Z,37.80
2019-05-19T01:53:13.653Z,37.81
2019-05-19T01:55:40.475Z,37.94
2019-05-19T01:58:07.273Z,37.87
2019-05-19T02:00:34.168Z,37.86
2019-05-19T02:03:00.974Z,37.95
2019-05-19T02:05:27.845Z,37.84
2019-05-19T02:07:54.687Z,37.80
2019-05-19T02:10:21.398Z,37.83
2019-05-19T02:12:48.264Z,37.90
2019-05-19T02:15:15.110Z,37.79
2019-05-19T02:17:41.957Z,37.79
2019-05-19T02:20:08.803Z,37.84
2019-05-19T02:22:35.644Z,37.80
2019-05-19T02:25:02.490Z,37.76
2019-05-19T02:27:29.288Z,37.78
2019-05-19T02:29:56.168Z,37.78
2019-05-19T02:32:23.026Z,37.75
2019-05-19T02:34:49.962Z,37.82
2019-05-19T02:37:16.805Z,37.90
2019-05-19T02:39:43.645Z,37.93
2019-05-19T02:42:10.488Z,37.71
2019-05-19T02:44:37.428Z,37.79
2019-05-19T02:47:04.363Z,37.76
2019-05-19T02:49:31.213Z,37.83
2019-05-19T02:54:24.904Z,37.71
2019-05-19T02:56:51.749Z,37.71
2019-05-19T02:59:18.534Z,37.70
2019-05-19T03:01:45.307Z,37.65
2019-05-19T03:04:12.167Z,37.81
2019-05-19T03:06:39.014Z,37.77
2019-05-19T03:09:05.970Z,37.66
2019-05-19T03:11:32.795Z,37.72
2019-05-19T03:13:59.556Z,37.63
2019-05-19T03:16:26.475Z,37.72
2019-05-19T03:18:53.324Z,37.79
2019-05-19T03:21:20.272Z,37.71
2019-05-19T03:23:47.117Z,37.74
2019-05-19T03:26:13.958Z,37.65
2019-05-19T03:28:40.800Z,37.71
2019-05-19T03:31:07.570Z,37.68
2019-05-19T03:33:34.311Z,37.64
2019-05-19T03:36:01.210Z,37.67
2019-05-19T03:38:28.065Z,37.69
2019-05-19T03:40:55.034Z,37.64
2019-05-19T03:43:21.851Z,37.22
2019-05-19T03:45:48.633Z,37.24
2019-05-19T03:48:15.411Z,37.36
2019-05-19T03:50:42.265Z,36.85
2019-05-19T03:53:09.111Z,36.68
2019-05-19T03:55:35.962Z,36.45
2019-05-19T03:58:02.789Z,36.25
2019-05-19T04:00:29.640Z,36.04
2019-05-19T04:02:56.587Z,35.98
2019-05-19T04:05:23.543Z,35.88
2019-05-19T04:07:50.486Z,35.57
2019-05-19T04:10:17.274Z,35.44
2019-05-19T04:15:10.983Z,35.78
2019-05-19T04:17:37.839Z,34.88
2019-05-19T04:20:04.678Z,35.21
2019-05-19T04:22:31.518Z,35.58
2019-05-19T04:24:58.365Z,35.64
2019-05-19T04:27:25.324Z,35.77
2019-05-19T04:29:52.098Z,35.94
2019-05-19T04:32:20.798Z,36.05
2019-05-19T04:34:47.532Z,35.97
2019-05-19T04:37:14.253Z,36.05
2019-05-19T04:39:41.173Z,36.00
2019-05-19T04:42:08.030Z,36.03
2019-05-19T04:44:34.782Z,35.98
2019-05-19T04:47:01.582Z,35.97
2019-05-19T04:49:28.541Z,35.85
2019-05-19T04:52:05.909Z,35.68
2019-05-19T04:54:22.333Z,35.46
2019-05-19T04:56:49.177Z,35.24
2019-05-19T04:59:16.013Z,35.21
2019-05-19T05:01:42.957Z,35.09
2019-05-19T05:04:09.975Z,34.96
2019-05-19T05:06:36.726Z,34.86
2019-05-19T05:09:03.592Z,34.73
2019-05-19T05:11:30.382Z,34.64
2019-05-19T05:13:57.275Z,34.46
2019-05-19T05:16:24.112Z,34.35
2019-05-19T05:18:51.064Z,34.27
2019-05-19T05:21:17.892Z,34.32
2019-05-19T05:23:44.733Z,34.34
2019-05-19T05:26:11.692Z,34.27
2019-05-19T05:28:38.533Z,34.15
2019-05-19T05:31:05.348Z,34.23
2019-05-19T05:35:59.063Z,34.28
2019-05-19T05:38:25.903Z,34.30
2019-05-19T05:40:52.727Z,34.31
2019-05-19T05:43:19.583Z,34.24
2019-05-19T05:45:46.347Z,34.30
2019-05-19T05:48:13.275Z,34.27
2019-05-19T05:50:40.212Z,34.36
2019-05-19T05:53:07.063Z,34.36
2019-05-19T05:55:33.904Z,34.39
2019-05-19T05:58:00.743Z,34.48
2019-05-19T06:00:27.615Z,34.65
2019-05-19T06:02:54.417Z,34.76
2019-05-19T06:05:21.390Z,35.04
2019-05-19T06:07:48.224Z,34.83
2019-05-19T06:10:15.177Z,34.59
2019-05-19T06:12:42.015Z,34.97
2019-05-19T06:15:08.839Z,34.91
2019-05-19T06:17:35.678Z,34.84
2019-05-19T06:20:03.201Z,34.68
2019-05-19T06:22:29.477Z,34.67
2019-05-19T06:24:58.957Z,34.43
2019-05-19T06:27:23.102Z,34.50
2019-05-19T06:29:50.011Z,34.56
2019-05-19T06:32:16.855Z,34.55
2019-05-19T06:34:43.792Z,34.45
2019-05-19T06:37:10.637Z,34.44
2019-05-19T06:39:37.392Z,34.54
2019-05-19T06:42:04.219Z,34.46
2019-05-19T06:44:31.065Z,34.43
2019-05-19T06:46:57.907Z,34.51
2019-05-19T06:49:24.754Z,34.51
2019-05-19T06:51:51.586Z,34.37
2019-05-19T06:54:18.436Z,34.36
2019-05-19T06:56:45.276Z,34.28
2019-05-19T06:59:12.119Z,34.28
2019-05-19T07:01:38.916Z,34.35
2019-05-19T07:04:05.664Z,34.35
2019-05-19T07:06:34.183Z,34.30
2019-05-19T07:08:59.387Z,34.20
2019-05-19T07:11:26.132Z,34.24
2019-05-19T07:13:52.967Z,34.30
2019-05-19T07:18:46.659Z,34.28
2019-05-19T07:21:13.500Z,34.38
2019-05-19T07:23:40.331Z,34.30
2019-05-19T07:26:07.177Z,34.21
2019-05-19T07:28:34.031Z,34.06
2019-05-19T07:31:00.808Z,34.15
2019-05-19T07:33:27.603Z,34.17
2019-05-19T07:35:54.454Z,34.28
2019-05-19T07:38:21.295Z,34.12
2019-05-19T07:40:48.062Z,34.08
2019-05-19T07:43:14.935Z,34.21
2019-05-19T07:45:41.591Z,34.16
2019-05-19T07:48:08.446Z,34.36
2019-05-19T07:50:37.976Z,34.29
2019-05-19T07:53:02.149Z,34.29
2019-05-19T07:55:28.915Z,34.28
2019-05-19T07:57:55.724Z,34.16
2019-05-19T08:00:22.562Z,34.30
2019-05-19T08:02:49.429Z,34.33
2019-05-19T08:05:16.251Z,34.27
2019-05-19T08:07:43.101Z,34.30
2019-05-19T08:10:10.103Z,34.22
2019-05-19T08:12:36.770Z,34.20
2019-05-19T08:15:03.507Z,34.27
2019-05-19T08:17:30.255Z,34.40
2019-05-19T08:19:57.104Z,34.57
2019-05-19T08:22:23.885Z,34.67
2019-05-19T08:27:17.421Z,34.60
2019-05-19T08:29:44.271Z,34.65
2019-05-19T08:32:11.019Z,34.71
2019-05-19T08:34:37.855Z,34.80
2019-05-19T08:37:04.704Z,34.80
2019-05-19T08:39:31.500Z,34.75
2019-05-19T08:41:58.383Z,34.82
2019-05-19T08:44:25.217Z,34.99
2019-05-19T08:49:18.914Z,35.14
2019-05-19T08:51:45.757Z,35.18
2019-05-19T08:54:15.070Z,35.30
2019-05-19T08:56:39.437Z,35.45
2019-05-19T08:59:06.241Z,35.42
2019-05-19T09:01:33.122Z,35.53
2019-05-19T09:03:59.875Z,35.46
2019-05-19T09:06:26.678Z,35.39
2019-05-19T09:08:53.552Z,35.25
2019-05-19T09:11:20.317Z,35.12
2019-05-19T09:13:47.117Z,35.51
2019-05-19T09:16:13.971Z,36.00
2019-05-19T09:18:40.743Z,36.31
2019-05-19T09:23:34.396Z,36.16
2019-05-19T09:26:01.186Z,36.02
2019-05-19T09:28:27.973Z,35.91
2019-05-19T09:30:54.824Z,35.90
2019-05-19T09:33:21.664Z,36.14
2019-05-19T09:35:48.451Z,35.98
2019-05-19T09:38:15.359Z,36.02
2019-05-19T09:40:42.201Z,35.96
2019-05-19T09:43:09.217Z,35.95
2019-05-19T09:45:35.989Z,36.04
2019-05-19T09:48:02.826Z,36.05
2019-05-19T09:50:29.675Z,36.11
2019-05-19T09:52:56.526Z,36.14
2019-05-19T09:55:23.393Z,36.15
2019-05-19T09:57:50.121Z,36.18
2019-05-19T10:00:16.932Z,36.21
2019-05-19T10:02:43.737Z,36.17
2019-05-19T10:05:13.047Z,36.12
2019-05-19T10:07:37.476Z,36.05
2019-05-19T10:10:04.317Z,35.98
2019-05-19T10:12:31.257Z,35.96
2019-05-19T10:14:58.097Z,35.90
2019-05-19T10:17:24.933Z,35.79
2019-05-19T10:19:51.715Z,35.86
2019-05-19T10:22:18.518Z,35.90
2019-05-19T10:24:57.831Z,35.83
2019-05-19T10:27:12.316Z,35.82
2019-05-19T10:29:39.153Z,35.78
2019-05-19T10:32:06.003Z,35.68
2019-05-19T10:34:32.767Z,35.53
2019-05-19T10:36:59.582Z,35.46
2019-05-19T10:39:26.420Z,35.44
2019-05-19T10:41:53.276Z,35.47
2019-05-19T10:44:20.043Z,35.45
2019-05-19T10:46:46.933Z,35.40
2019-05-19T10:49:13.802Z,35.48
2019-05-19T10:51:40.595Z,35.50
2019-05-19T10:54:07.331Z,35.39
2019-05-19T10:56:34.232Z,35.45
2019-05-19T10:59:01.165Z,35.33
2019-05-19T11:01:28.013Z,35.31
2019-05-19T11:03:54.849Z,35.33
2019-05-19T11:06:21.643Z,35.33
2019-05-19T11:08:48.534Z,35.35
2019-05-19T11:11:15.384Z,35.33
2019-05-19T11:13:42.223Z,35.08
2019-05-19T11:16:08.954Z,35.21
2019-05-19T11:18:39.009Z,35.07
2019-05-19T11:21:05.828Z,35.10
2019-05-19T11:23:32.644Z,34.95
2019-05-19T11:25:59.503Z,35.02
2019-05-19T11:28:26.349Z,35.05
2019-05-19T11:30:53.199Z,35.01
2019-05-19T11:33:19.995Z,34.95
2019-05-19T11:35:46.871Z,34.96
2019-05-19T11:38:13.660Z,34.98
2019-05-19T11:40:40.491Z,34.89
2019-05-19T11:43:07.276Z,34.80
2019-05-19T11:45:34.143Z,34.81
2019-05-19T11:48:00.992Z,34.76
2019-05-19T11:50:27.829Z,34.62
2019-05-19T11:52:54.670Z,34.70
2019-05-19T11:55:21.527Z,34.72
2019-05-19T11:57:48.303Z,34.72
2019-05-19T12:00:15.207Z,34.72
2019-05-19T12:02:41.978Z,34.61
2019-05-19T12:05:08.891Z,34.64
2019-05-19T12:07:35.718Z,34.67
2019-05-19T12:10:02.686Z,34.57
2019-05-19T12:12:29.414Z,34.55
2019-05-19T12:14:56.257Z,34.71
2019-05-19T12:17:23.224Z,34.41
2019-05-19T12:19:49.935Z,34.44
2019-05-19T12:22:16.783Z,34.41
2019-05-19T12:24:43.614Z,34.46
2019-05-19T12:27:10.454Z,34.52
2019-05-19T12:29:37.222Z,34.48
2019-05-19T12:32:04.155Z,34.50
2019-05-19T12:34:30.930Z,34.43
2019-05-19T12:36:57.769Z,34.44
2019-05-19T12:39:24.523Z,34.32
2019-05-19T12:41:51.430Z,34.19
2019-05-19T12:44:18.264Z,34.33
2019-05-19T12:49:11.849Z,34.33
2019-05-19T12:51:38.793Z,34.41
2019-05-19T12:54:05.589Z,34.36
2019-05-19T12:56:39.898Z,34.42
2019-05-19T12:58:59.138Z,34.31
2019-05-19T13:01:26.058Z,34.26
2019-05-19T13:03:52.915Z,34.30
2019-05-19T13:06:19.753Z,34.28
2019-05-19T13:08:46.581Z,34.20
2019-05-19T13:11:13.436Z,34.13
2019-05-19T13:13:40.380Z,34.31
2019-05-19T13:16:07.040Z,34.13
2019-05-19T13:18:33.963Z,34.15
2019-05-19T13:21:00.789Z,34.19
2019-05-19T13:23:27.643Z,34.17
2019-05-19T13:25:54.475Z,34.25
2019-05-19T13:28:21.329Z,34.17
2019-05-19T13:30:48.174Z,34.25
2019-05-19T13:33:15.015Z,34.19
2019-05-19T13:35:42.793Z,34.19
2019-05-19T13:38:08.702Z,34.28
2019-05-19T13:40:35.529Z,34.33
2019-05-19T13:43:02.387Z,34.32
2019-05-19T13:45:29.233Z,34.29
2019-05-19T13:47:56.066Z,34.28
2019-05-19T13:50:22.909Z,34.33
2019-05-19T13:52:52.839Z,34.32
2019-05-19T13:55:19.630Z,34.35
2019-05-19T13:57:46.502Z,34.18
2019-05-19T14:00:13.466Z,34.20
2019-05-19T14:02:40.295Z,34.20
2019-05-19T14:05:07.147Z,34.12
2019-05-19T14:07:34.093Z,34.21
2019-05-19T14:10:00.936Z,34.15
2019-05-19T14:12:27.882Z,34.22
2019-05-19T14:14:54.725Z,34.24
2019-05-19T14:17:21.560Z,34.18
2019-05-19T14:19:48.407Z,34.21
2019-05-19T14:22:15.236Z,34.24
2019-05-19T14:24:42.093Z,34.40
2019-05-19T14:27:08.947Z,34.31
2019-05-19T14:32:02.624Z,34.47
2019-05-19T14:34:29.563Z,34.49
2019-05-19T14:36:56.402Z,34.46
2019-05-19T14:39:23.248Z,34.54
2019-05-19T14:41:50.175Z,34.68
2019-05-19T14:44:17.138Z,34.66
2019-05-19T14:46:43.984Z,34.77
2019-05-19T14:49:10.823Z,34.80
2019-05-19T14:51:37.661Z,34.82
2019-05-19T14:54:04.511Z,34.77
2019-05-19T14:56:33.679Z,34.89
2019-05-19T14:58:58.190Z,34.82
2019-05-19T15:01:24.939Z,34.93
2019-05-19T15:03:51.605Z,34.98
2019-05-19T15:06:18.402Z,35.01
2019-05-19T15:08:45.090Z,34.85
2019-05-19T15:11:11.775Z,35.09
2019-05-19T15:13:38.429Z,35.13
2019-05-19T15:16:05.206Z,35.09
2019-05-19T15:18:31.854Z,35.33
2019-05-19T15:20:58.573Z,35.18
2019-05-19T15:23:25.276Z,35.23
2019-05-19T15:25:51.923Z,35.26
2019-05-19T15:28:18.575Z,35.56
2019-05-19T15:30:45.208Z,35.50
2019-05-19T15:33:11.915Z,35.46
2019-05-19T15:35:38.556Z,35.73
2019-05-19T15:38:05.201Z,35.66
2019-05-19T15:40:31.890Z,35.88
2019-05-19T15:42:58.574Z,35.87
2019-05-19T15:45:25.211Z,35.99
2019-05-19T15:47:51.875Z,36.03
2019-05-19T15:50:18.609Z,36.17
2019-05-19T15:52:45.290Z,36.11
2019-05-19T15:55:11.946Z,36.20
2019-05-19T15:57:38.789Z,36.22
2019-05-19T16:02:32.194Z,36.31
2019-05-19T16:04:59.002Z,36.29
2019-05-19T16:07:25.788Z,36.29
2019-05-19T16:09:52.465Z,36.30
2019-05-19T16:12:19.441Z,36.37
2019-05-19T16:14:46.209Z,36.39
2019-05-19T16:17:12.887Z,36.40
2019-05-19T16:19:39.665Z,36.41
2019-05-19T16:22:06.298Z,36.53
2019-05-19T16:24:33.009Z,36.54
2019-05-19T16:26:59.705Z,36.45
2019-05-19T16:29:26.469Z,36.53
2019-05-19T16:31:53.245Z,36.54
2019-05-19T16:34:19.903Z,36.68
2019-05-19T16:36:46.547Z,36.75
2019-05-19T16:39:13.293Z,36.92
2019-05-19T16:41:40.145Z,37.10
2019-05-19T16:44:06.877Z,37.18
2019-05-19T16:46:33.809Z,37.18
2019-05-19T16:49:00.565Z,37.24
2019-05-19T16:51:27.528Z,37.35
2019-05-19T16:53:54.358Z,37.41
2019-05-19T16:56:21.215Z,37.35
2019-05-19T16:58:48.052Z,37.33
2019-05-19T17:01:15.002Z,37.39
2019-05-19T17:03:41.952Z,37.40
2019-05-19T17:06:08.785Z,37.45
2019-05-19T17:08:35.506Z,37.44
2019-05-19T17:11:16.334Z,37.45
2019-05-19T17:13:29.191Z,37.50
2019-05-19T17:15:56.049Z,37.50
2019-05-19T17:18:22.890Z,37.55
2019-05-19T17:20:49.695Z,37.55
2019-05-19T17:23:16.720Z,37.51
2019-05-19T17:25:43.612Z,37.55
2019-05-19T17:28:10.351Z,37.59
2019-05-19T17:30:37.165Z,37.60
2019-05-19T17:33:04.111Z,37.68
2019-05-19T17:35:30.910Z,37.62
2019-05-19T17:37:57.736Z,37.57
2019-05-19T17:40:24.570Z,37.69
2019-05-19T17:42:51.236Z,37.74
2019-05-19T17:45:17.859Z,37.75
2019-05-19T17:47:44.554Z,37.74
2019-05-19T17:50:11.200Z,37.76
2019-05-19T17:52:37.845Z,37.80
2019-05-19T17:57:31.228Z,37.87
2019-05-19T17:59:57.864Z,37.88
2019-05-19T18:02:24.512Z,37.84
2019-05-19T18:04:51.208Z,37.88
2019-05-19T18:07:17.849Z,37.80
2019-05-19T18:09:44.513Z,37.78
2019-05-19T18:12:11.192Z,37.78
2019-05-19T18:14:37.836Z,37.71
2019-05-19T18:17:04.530Z,37.69
2019-05-19T18:19:31.174Z,37.71
2019-05-19T18:21:57.878Z,37.59
2019-05-19T18:24:24.567Z,37.66
2019-05-19T18:26:51.204Z,37.52
2019-05-19T18:31:44.564Z,37.65
2019-05-19T18:34:13.792Z,37.73
2019-05-19T18:36:40.475Z,37.66
2019-05-19T18:39:07.131Z,37.77
2019-05-19T18:41:33.821Z,37.77
2019-05-19T18:44:00.469Z,37.76
2019-05-19T18:46:27.145Z,37.76
2019-05-19T18:48:53.794Z,37.74
2019-05-19T18:51:20.434Z,37.76
2019-05-19T18:53:47.131Z,37.71
2019-05-19T18:56:13.814Z,37.79
2019-05-19T18:58:40.461Z,37.88
2019-05-19T19:01:07.108Z,37.75
2019-05-19T19:03:33.744Z,37.82
2019-05-19T19:06:00.554Z,37.63
2019-05-19T19:08:27.262Z,37.65
2019-05-19T19:10:53.915Z,37.65
2019-05-19T19:13:20.540Z,37.58
2019-05-19T19:15:47.199Z,37.61
2019-05-19T19:18:13.845Z,37.66
2019-05-19T19:20:40.487Z,37.53
2019-05-19T19:23:07.128Z,37.46
2019-05-19T19:25:33.780Z,37.46
2019-05-19T19:28:00.421Z,37.50
2019-05-19T19:30:27.205Z,37.40
2019-05-19T19:32:53.881Z,37.42
2019-05-19T19:35:20.517Z,37.40
2019-05-19T19:37:47.173Z,37.31
2019-05-19T19:40:13.860Z,37.30
2019-05-19T19:42:40.504Z,37.35
2019-05-19T19:45:07.190Z,37.33
2019-05-19T19:47:33.883Z,37.36
2019-05-19T19:50:00.532Z,37.37
2019-05-19T19:52:27.220Z,37.31
2019-05-19T19:54:53.883Z,37.18
2019-05-19T19:57:20.516Z,37.20
2019-05-19T19:59:47.167Z,37.25
2019-05-19T20:02:13.937Z,37.14
2019-05-19T20:04:40.592Z,37.23
2019-05-19T20:07:07.237Z,37.28
2019-05-19T20:09:33.921Z,37.14
2019-05-19T20:12:00.575Z,37.25
2019-05-19T20:14:27.230Z,37.24
2019-05-19T20:16:53.972Z,37.19
2019-05-19T20:19:20.617Z,37.15
2019-05-19T20:21:47.268Z,37.21
2019-05-19T20:26:40.556Z,37.19
2019-05-19T20:29:07.189Z,37.17
2019-05-19T20:31:33.907Z,37.13
2019-05-19T20:34:00.542Z,37.11
2019-05-19T20:36:27.184Z,37.14
2019-05-19T20:38:53.847Z,37.21
2019-05-19T20:41:20.539Z,37.12
2019-05-19T20:43:47.216Z,37.15
2019-05-19T20:46:13.939Z,37.14
2019-05-19T20:48:40.658Z,37.13
2019-05-19T20:51:07.382Z,37.31
2019-05-19T20:53:34.164Z,37.21
2019-05-19T20:56:00.903Z,37.14
2019-05-19T20:58:27.642Z,37.14
2019-05-19T21:00:54.370Z,37.17
2019-05-19T21:03:21.046Z,37.22
2019-05-19T21:05:47.758Z,37.15
2019-05-19T21:08:14.425Z,37.23
2019-05-19T21:10:41.146Z,37.19
2019-05-19T21:13:07.862Z,37.32
2019-05-19T21:15:34.574Z,37.18
2019-05-19T21:18:01.358Z,37.16
2019-05-19T21:20:28.026Z,37.18
2019-05-19T21:22:54.740Z,37.24
2019-05-19T21:25:21.506Z,37.21
2019-05-19T21:27:48.197Z,37.19
2019-05-19T21:30:14.878Z,37.15
2019-05-19T21:32:41.644Z,37.14
2019-05-19T21:35:08.376Z,37.12
2019-05-19T21:37:35.048Z,37.13
2019-05-19T21:40:01.757Z,37.17
2019-05-19T21:44:55.149Z,37.09
2019-05-19T21:47:21.941Z,37.17
2019-05-19T21:49:48.615Z,37.09
2019-05-19T21:52:15.312Z,37.11
2019-05-19T21:54:41.989Z,36.97
2019-05-19T21:57:08.708Z,37.01
2019-05-19T21:59:35.432Z,36.94
2019-05-19T22:02:02.122Z,37.03
2019-05-19T22:04:28.830Z,36.90
2019-05-19T22:06:55.500Z,36.90
2019-05-19T22:09:22.292Z,36.89
2019-05-19T22:11:48.990Z,36.79
2019-05-19T22:14:15.768Z,36.78
2019-05-19T22:16:42.489Z,36.66
2019-05-19T22:19:09.208Z,36.58
2019-05-19T22:21:35.966Z,36.49
2019-05-19T22:24:02.639Z,36.48
2019-05-19T22:26:29.316Z,36.44
2019-05-19T22:28:56.002Z,36.46
2019-05-19T22:31:36.029Z,36.36
2019-05-19T22:33:49.396Z,36.33
2019-05-19T22:36:16.062Z,36.20
2019-05-19T22:41:09.439Z,36.13
2019-05-19T22:43:36.119Z,36.22
2019-05-19T22:46:02.829Z,36.15
2019-05-19T22:48:29.503Z,36.12
2019-05-19T22:50:56.185Z,36.15
2019-05-19T22:53:22.857Z,36.09
2019-05-19T22:55:49.544Z,36.09
2019-05-19T22:58:16.236Z,35.92
2019-05-19T23:03:09.586Z,35.82
2019-05-19T23:05:36.254Z,36.04
2019-05-19T23:08:02.928Z,35.72
2019-05-19T23:10:29.600Z,35.60
2019-05-19T23:15:22.944Z,35.56
2019-05-19T23:17:49.631Z,35.57
2019-05-19T23:20:16.309Z,35.54
2019-05-19T23:22:43.087Z,35.28
2019-05-19T23:25:09.750Z,35.38
2019-05-19T23:27:36.418Z,35.35
2019-05-19T23:30:03.099Z,35.12
2019-05-19T23:32:29.795Z,35.25
2019-05-19T23:34:59.730Z,35.12
2019-05-19T23:37:26.406Z,35.06
2019-05-19T23:39:54.251Z,35.08
2019-05-19T23:42:19.757Z,35.00
2019-05-19T23:44:46.442Z,34.88
2019-05-19T23:47:13.120Z,34.97
2019-05-19T23:49:39.797Z,34.91
2019-05-19T23:52:06.488Z,34.84
2019-05-19T23:54:33.166Z,34.96
2019-05-19T23:56:59.877Z,34.84
2019-05-19T23:59:26.556Z,34.87
